Time;durP1;ratioP1;P1;durP2;ratioP2;P2;SDS_P1;SDS_P2;PMS_P1;PMS_P2;Temp;Humidity;BMP_temperature;BMP_pressure;BME280_temperature;BME280_humidity;BME280_pressure;Samples;Min_cycle;Max_cycle;Signal;HPM_P1;HPM_P2
2022/01/20 00:00:33;;;;;;;4.80;3.60;;;;;;;3.88;92.77;99376.09;5061557;27;103148;-62
2022/01/20 00:03:10;;;;;;;4.13;3.73;;;;;;;3.82;92.82;99377.16;5033707;27;102811;-63
2022/01/20 00:06:06;;;;;;;3.83;3.37;;;;;;;4.06;91.92;99380.69;5054438;27;102715;-63
2022/01/20 00:08:38;;;;;;;4.20;3.20;;;;;;;4.20;91.32;99382.81;5058519;27;104075;-62
2022/01/20 00:27:52;;;;;;;3.10;2.60;;;;;;;4.27;91.40;99384.28;5048915;27;102698;-65
2022/01/20 00:30:41;;;;;;;3.33;3.03;;;;;;;4.28;91.41;99381.63;5033008;27;103091;-66
2022/01/20 00:33:22;;;;;;;3.60;3.07;;;;;;;4.17;92.33;99377.69;5041107;27;103240;-65
2022/01/20 00:38:38;;;;;;;3.47;3.10;;;;;;;4.24;91.47;99385.25;5036861;27;104109;-64
2022/01/20 00:41:12;;;;;;;3.10;2.80;;;;;;;4.28;91.93;99381.63;5055696;27;104070;-65
2022/01/20 00:43:41;;;;;;;3.30;3.00;;;;;;;4.23;91.50;99396.66;5033888;27;103201;-65
2022/01/20 00:46:09;;;;;;;3.83;3.47;;;;;;;4.12;92.48;99396.19;5060417;27;102558;-61
2022/01/20 00:48:38;;;;;;;3.23;2.90;;;;;;;4.18;92.56;99401.19;5057638;27;102678;-65
2022/01/20 00:51:08;;;;;;;3.87;3.13;;;;;;;3.94;93.68;99405.50;5034695;27;103823;-65
2022/01/20 00:53:38;;;;;;;4.20;3.20;;;;;;;4.06;94.19;99402.47;5033080;27;103185;-62
2022/01/20 00:56:07;;;;;;;3.10;2.77;;;;;;;4.17;93.08;99402.09;5035682;27;102743;-62
2022/01/20 00:58:36;;;;;;;3.23;2.87;;;;;;;4.20;92.49;99407.22;5050155;27;104199;-65
2022/01/20 01:01:05;;;;;;;3.50;2.63;;;;;;;4.01;93.01;99409.59;5054702;27;103203;-65
2022/01/20 01:03:34;;;;;;;2.87;2.57;;;;;;;4.09;93.19;99405.00;5029891;27;103154;-62
2022/01/20 01:06:14;;;;;;;3.03;2.30;;;;;;;4.14;93.80;99398.72;5036040;27;102663;-61
2022/01/20 01:08:42;;;;;;;3.30;2.93;;;;;;;4.10;93.28;99414.53;5034452;27;103655;-62
2022/01/20 01:11:10;;;;;;;3.87;3.47;;;;;;;3.92;93.50;99415.19;5057781;27;103864;-62
2022/01/20 01:13:38;;;;;;;3.20;2.90;;;;;;;3.93;94.69;99422.09;5052698;27;104974;-62
2022/01/20 01:16:10;;;;;;;4.23;2.83;;;;;;;3.92;94.88;99422.16;5033145;27;102748;-62
2022/01/20 01:21:30;;;;;;;2.50;2.30;;;;;;;3.96;94.63;99424.59;5033974;27;104359;-65
2022/01/20 01:23:58;;;;;;;2.77;2.50;;;;;;;4.02;94.35;99423.53;5031887;27;104174;-65
2022/01/20 01:26:28;;;;;;;2.30;2.10;;;;;;;3.92;94.24;99433.47;5063476;27;102698;-65
2022/01/20 01:28:58;;;;;;;2.53;2.33;;;;;;;3.80;94.41;99431.25;5033784;27;102692;-65
2022/01/20 01:31:34;;;;;;;3.23;2.30;;;;;;;3.92;94.32;99430.88;5063830;27;103291;-65
2022/01/20 01:34:06;;;;;;;3.93;2.23;;;;;;;4.03;94.50;99418.28;5040086;27;102954;-66
2022/01/20 01:39:22;;;;;;;2.77;2.57;;;;;;;3.76;96.38;99419.19;5034048;27;103699;-65
2022/01/20 01:41:54;;;;;;;3.73;2.10;;;;;;;4.02;95.38;99418.31;5047868;27;104018;-65
2022/01/20 01:44:28;;;;;;;2.03;1.83;;;;;;;3.90;95.27;99411.75;5048310;27;102574;-65
2022/01/20 01:47:00;;;;;;;2.20;2.00;;;;;;;4.04;94.81;99404.28;5034282;27;103086;-65
2022/01/20 01:49:30;;;;;;;2.30;1.90;;;;;;;4.03;94.93;99407.81;5039267;27;102918;-65
2022/01/20 01:51:59;;;;;;;2.90;2.50;;;;;;;3.99;94.97;99419.28;5038250;27;104813;-62
2022/01/20 01:54:30;;;;;;;2.10;1.83;;;;;;;4.04;94.51;99409.50;5030454;27;103187;-62
2022/01/20 01:57:05;;;;;;;2.10;1.90;;;;;;;4.08;93.98;99412.88;5040909;27;102910;-61
2022/01/20 01:59:35;;;;;;;1.80;1.63;;;;;;;4.10;93.93;99409.28;5053779;27;103784;-62
2022/01/20 02:02:25;;;;;;;2.23;2.03;;;;;;;3.99;93.85;99411.44;5038182;27;103926;-62
2022/01/20 02:04:53;;;;;;;3.73;1.73;;;;;;;4.08;94.13;99412.88;5026192;27;103571;-62
2022/01/20 02:18:51;;;;;;;1.93;1.77;;;;;;;3.96;95.43;99401.06;5044387;27;103210;-62
2022/01/20 02:21:33;;;;;;;2.40;2.00;;;;;;;3.83;96.14;99388.47;5036101;27;102778;-63
2022/01/20 02:24:03;;;;;;;2.63;1.80;;;;;;;3.95;96.14;99386.31;5038282;27;102589;-65
2022/01/20 02:26:31;;;;;;;2.00;1.73;;;;;;;3.91;96.50;99383.84;5033317;27;105123;-65
2022/01/20 02:29:00;;;;;;;1.60;1.43;;;;;;;3.70;96.95;99385.44;5024900;27;102669;-65
2022/01/20 02:31:29;;;;;;;1.80;1.70;;;;;;;3.85;96.50;99386.66;5027139;27;102823;-65
2022/01/20 02:34:00;;;;;;;1.73;1.50;;;;;;;3.82;96.12;99385.00;5031202;27;105907;-65
2022/01/20 02:36:31;;;;;;;1.53;1.40;;;;;;;3.75;96.79;99401.81;5035733;27;103214;-65
2022/01/20 02:39:10;;;;;;;1.43;1.33;;;;;;;3.84;96.17;99396.28;5029308;27;103104;-65
2022/01/20 02:47:14;;;;;;;1.83;1.57;;;;;;;3.87;96.69;99397.94;5032239;27;107137;-62
2022/01/20 02:49:42;;;;;;;1.20;1.10;;;;;;;3.91;96.11;99387.31;5031739;27;102682;-63
2022/01/20 02:52:12;;;;;;;1.73;1.63;;;;;;;3.90;95.87;99396.06;5025083;27;103915;-63
2022/01/20 02:54:42;;;;;;;1.53;1.20;;;;;;;3.93;95.32;99406.41;5030223;27;104442;-62
2022/01/20 02:57:11;;;;;;;1.23;1.13;;;;;;;4.07;95.84;99404.16;5038593;27;103196;-62
2022/01/20 02:59:40;;;;;;;1.50;1.40;;;;;;;4.08;95.36;99416.34;5031170;27;103002;-62
2022/01/20 03:02:09;;;;;;;2.00;1.37;;;;;;;4.09;94.80;99405.00;5051467;27;103220;-62
2022/01/20 03:04:39;;;;;;;1.53;1.43;;;;;;;4.08;94.83;99398.03;5026263;27;105349;-62
2022/01/20 03:07:20;;;;;;;1.20;1.10;;;;;;;4.27;94.94;99407.84;5040348;27;105887;-62
2022/01/20 03:09:50;;;;;;;1.70;1.60;;;;;;;4.25;94.82;99401.81;5027416;27;102745;-62
2022/01/20 03:12:18;;;;;;;2.33;1.70;;;;;;;4.24;95.00;99403.56;5035584;27;103904;-62
2022/01/20 03:14:47;;;;;;;2.30;2.00;;;;;;;4.13;95.83;99412.72;5030556;27;104607;-62
2022/01/20 03:17:16;;;;;;;1.97;1.80;;;;;;;4.13;94.46;99408.31;5043641;27;103059;-62
2022/01/20 03:19:43;;;;;;;2.17;1.93;;;;;;;4.08;95.56;99411.13;5034075;27;102673;-62
2022/01/20 03:22:11;;;;;;;2.33;2.13;;;;;;;4.08;95.10;99400.66;5037769;27;104115;-62
2022/01/20 03:24:39;;;;;;;2.00;1.90;;;;;;;3.98;95.98;99414.13;5034081;27;103186;-62
2022/01/20 03:27:09;;;;;;;2.87;2.13;;;;;;;3.98;94.97;99414.13;5029365;27;104183;-65
2022/01/20 03:29:37;;;;;;;2.27;2.13;;;;;;;4.07;95.62;99414.63;5051518;27;102696;-65
2022/01/20 03:32:06;;;;;;;3.13;2.40;;;;;;;4.02;95.90;99411.31;5036192;27;102598;-62
2022/01/20 03:34:35;;;;;;;2.40;2.20;;;;;;;4.09;96.21;99407.59;5052768;27;103315;-62
2022/01/20 03:37:10;;;;;;;4.73;2.07;;;;;;;3.98;95.79;99401.91;5040066;27;103163;-62
2022/01/20 03:39:56;;;;;;;2.90;1.80;;;;;;;4.10;95.74;99408.44;5054519;27;102790;-65
2022/01/20 03:42:26;;;;;;;2.17;2.00;;;;;;;4.05;95.94;99403.38;5044254;27;103893;-65
2022/01/20 03:44:54;;;;;;;2.83;2.50;;;;;;;4.04;97.06;99396.44;5035599;27;103731;-62
2022/01/20 03:47:24;;;;;;;2.23;2.03;;;;;;;4.10;96.11;99401.44;5031035;27;103156;-63
2022/01/20 03:50:06;;;;;;;2.20;2.00;;;;;;;3.94;97.03;99402.91;5041947;27;102683;-66
2022/01/20 03:52:34;;;;;;;2.27;2.07;;;;;;;4.12;95.96;99403.16;5037344;27;103937;-65
2022/01/20 03:55:04;;;;;;;2.80;2.00;;;;;;;4.19;95.58;99396.78;5023498;27;104096;-66
2022/01/20 03:58:09;;;;;;;2.67;2.47;;;;;;;4.13;96.01;99402.28;5037455;27;103262;-65
2022/01/20 04:00:43;;;;;;;1.93;1.83;;;;;;;4.12;95.35;99397.94;5032635;27;102655;-63
2022/01/20 04:03:24;;;;;;;2.67;2.47;;;;;;;3.98;96.15;99388.81;5054156;27;103660;-62
2022/01/20 04:05:57;;;;;;;2.50;2.30;;;;;;;4.03;95.69;99397.34;5042830;27;103397;-64
2022/01/20 04:08:34;;;;;;;3.20;2.90;;;;;;;3.86;96.10;99398.84;5038113;27;104361;-66
2022/01/20 04:11:05;;;;;;;2.63;2.43;;;;;;;3.99;95.76;99406.19;5054539;27;102651;-65
2022/01/20 04:13:34;;;;;;;2.87;2.60;;;;;;;3.91;94.98;99408.22;5047942;27;103435;-62
2022/01/20 04:16:13;;;;;;;2.87;2.50;;;;;;;3.92;95.76;99414.31;5032377;27;105096;-66
2022/01/20 04:18:51;;;;;;;2.70;2.50;;;;;;;4.02;95.37;99415.69;5038036;27;105953;-63
2022/01/20 04:21:20;;;;;;;3.13;2.63;;;;;;;4.04;95.12;99406.88;5040681;27;103827;-66
2022/01/20 04:23:48;;;;;;;3.37;2.30;;;;;;;4.17;94.83;99398.63;5046315;27;102679;-63
2022/01/20 04:26:19;;;;;;;2.43;2.23;;;;;;;4.08;94.62;99403.28;5036850;27;104207;-63
2022/01/20 04:28:53;;;;;;;3.67;2.83;;;;;;;3.93;95.07;99409.03;5043204;27;103191;-64
2022/01/20 04:31:23;;;;;;;3.43;2.70;;;;;;;4.04;94.90;99414.72;5012714;27;103391;-63
2022/01/20 04:33:51;;;;;;;2.77;2.53;;;;;;;4.06;94.28;99402.47;5025870;27;102782;-63
2022/01/20 04:36:20;;;;;;;2.70;2.50;;;;;;;4.07;94.83;99404.16;5019336;27;104252;-63
2022/01/20 04:38:48;;;;;;;2.90;2.40;;;;;;;4.08;94.92;99411.13;5018517;27;104282;-63
2022/01/20 04:41:20;;;;;;;4.00;2.90;;;;;;;4.02;94.64;99402.63;5035064;27;102702;-63
2022/01/20 04:43:49;;;;;;;3.27;2.40;;;;;;;4.05;94.01;99406.00;5027575;27;103017;-63
2022/01/20 04:46:25;;;;;;;3.87;3.37;;;;;;;4.04;94.58;99408.69;5030739;27;103983;-63
2022/01/20 04:49:12;;;;;;;4.60;2.43;;;;;;;4.07;94.71;99413.75;5026812;27;106657;-66
2022/01/20 04:57:17;;;;;;;3.23;3.00;;;;;;;3.93;95.63;99411.63;5027253;27;104421;-63
2022/01/20 04:59:50;;;;;;;3.40;2.50;;;;;;;3.80;95.99;99415.59;5032680;27;104115;-66
2022/01/20 05:02:20;;;;;;;3.07;2.70;;;;;;;3.87;96.50;99413.63;5036254;27;102817;-67
2022/01/20 05:04:53;;;;;;;3.13;2.80;;;;;;;3.92;96.13;99420.41;5027754;27;102772;-67
2022/01/20 05:07:42;;;;;;;3.80;2.80;;;;;;;3.92;96.35;99419.53;5028297;27;105847;-67
2022/01/20 05:10:13;;;;;;;3.67;2.23;;;;;;;3.84;96.92;99422.44;5037127;27;106841;-67
2022/01/20 05:13:04;;;;;;;3.93;2.23;;;;;;;3.87;96.87;99422.31;5017145;27;103720;-66
2022/01/20 05:15:33;;;;;;;3.07;2.73;;;;;;;3.89;97.86;99428.34;5043684;27;102937;-66
2022/01/20 05:18:04;;;;;;;5.23;2.63;;;;;;;3.82;97.73;99421.59;5039327;27;103323;-67
2022/01/20 05:20:35;;;;;;;3.03;2.40;;;;;;;3.93;98.02;99416.88;5040755;27;104227;-67
2022/01/20 05:23:03;;;;;;;4.53;2.60;;;;;;;3.92;98.44;99409.94;5038425;27;102679;-66
2022/01/20 05:25:34;;;;;;;3.50;2.90;;;;;;;3.86;98.54;99422.38;5028450;27;102601;-66
2022/01/20 05:28:02;;;;;;;4.53;2.03;;;;;;;3.90;98.37;99427.44;5029722;27;105131;-67
2022/01/20 05:30:31;;;;;;;2.50;2.30;;;;;;;3.73;99.16;99410.63;5034178;27;103276;-66
2022/01/20 05:33:23;;;;;;;3.70;2.80;;;;;;;3.75;99.61;99417.50;5052314;27;102655;-65
2022/01/20 05:35:51;;;;;;;4.13;3.00;;;;;;;3.65;99.32;99413.47;5023908;27;103676;-65
2022/01/20 05:38:19;;;;;;;7.70;2.80;;;;;;;3.70;99.37;99423.78;5020801;27;103254;-65
2022/01/20 05:40:52;;;;;;;4.53;2.50;;;;;;;3.78;98.76;99427.84;5036379;27;105439;-66
2022/01/20 05:43:20;;;;;;;2.73;2.40;;;;;;;3.68;98.84;99425.59;5021001;27;102641;-66
2022/01/20 05:45:50;;;;;;;5.73;2.60;;;;;;;3.72;98.42;99435.91;5029573;27;102755;-64
2022/01/20 05:48:31;;;;;;;3.27;2.60;;;;;;;3.66;99.08;99449.16;5041194;27;103205;-64
2022/01/20 05:51:24;;;;;;;4.13;2.83;;;;;;;3.62;99.09;99437.09;5034295;27;104067;-64
2022/01/20 05:53:52;;;;;;;3.43;2.70;;;;;;;3.66;98.45;99437.84;5051627;27;102566;-64
2022/01/20 05:56:20;;;;;;;3.93;2.77;;;;;;;3.67;98.56;99435.22;5032336;27;102650;-64
2022/01/20 05:58:51;;;;;;;3.23;2.90;;;;;;;3.57;98.57;99444.22;5033427;27;104154;-64
2022/01/20 06:01:22;;;;;;;7.27;3.07;;;;;;;3.71;98.21;99452.47;5041902;27;103191;-64
2022/01/20 06:03:50;;;;;;;5.00;3.27;;;;;;;3.78;97.80;99440.94;5050631;27;102627;-64
2022/01/20 06:06:27;;;;;;;5.70;2.90;;;;;;;3.73;97.30;99428.91;5031152;27;102733;-64
2022/01/20 06:08:57;;;;;;;3.97;3.33;;;;;;;3.62;97.94;99431.84;5037720;27;104003;-65
2022/01/20 06:11:27;;;;;;;4.40;3.10;;;;;;;3.68;97.53;99431.66;5034702;27;106098;-64
2022/01/20 06:13:57;;;;;;;6.73;3.60;;;;;;;3.63;97.45;99436.19;5026696;27;102615;-64
2022/01/20 06:16:25;;;;;;;4.47;3.10;;;;;;;3.66;98.23;99430.88;5029608;27;102782;-64
2022/01/20 06:18:54;;;;;;;4.47;3.13;;;;;;;3.58;98.13;99434.63;5038585;27;104079;-64
2022/01/20 06:21:22;;;;;;;3.83;3.40;;;;;;;3.63;98.19;99423.13;5039413;27;103285;-66
2022/01/20 06:23:52;;;;;;;7.40;3.33;;;;;;;3.66;98.01;99433.47;5033582;27;102740;-66
2022/01/20 06:26:21;;;;;;;3.17;2.50;;;;;;;3.74;97.29;99434.09;5031218;27;103989;-64
2022/01/20 06:28:53;;;;;;;3.37;2.83;;;;;;;3.62;97.38;99424.03;5039150;27;103668;-64
2022/01/20 06:31:21;;;;;;;5.13;3.47;;;;;;;3.68;97.90;99434.28;5027805;27;104992;-64
2022/01/20 06:33:52;;;;;;;4.10;3.67;;;;;;;3.71;97.61;99442.03;5034231;27;102731;-64
2022/01/20 06:36:20;;;;;;;3.83;3.37;;;;;;;3.61;98.26;99430.19;5035389;27;102719;-64
2022/01/20 06:38:48;;;;;;;5.90;4.23;;;;;;;3.60;97.71;99443.28;5030587;27;104059;-64
2022/01/20 06:41:17;;;;;;;4.53;3.87;;;;;;;3.75;97.41;99438.41;5030750;27;103158;-64
2022/01/20 06:43:45;;;;;;;5.70;3.67;;;;;;;3.72;96.41;99415.00;5033447;27;102762;-64
2022/01/20 06:46:14;;;;;;;8.77;4.03;;;;;;;3.61;97.38;99409.25;5031520;27;102912;-63
2022/01/20 06:49:10;;;;;;;5.90;4.00;;;;;;;3.58;97.31;99419.81;5038918;27;104013;-63
2022/01/20 06:51:50;;;;;;;5.37;4.20;;;;;;;3.63;97.03;99424.88;5042276;27;104191;-63
2022/01/20 06:54:19;;;;;;;5.17;4.27;;;;;;;3.62;96.60;99429.25;5049645;27;102703;-63
2022/01/20 06:56:48;;;;;;;6.53;4.87;;;;;;;3.44;97.06;99437.69;5038021;27;104501;-65
2022/01/20 06:59:18;;;;;;;5.90;4.50;;;;;;;3.47;97.44;99437.59;5037650;27;105171;-66
2022/01/20 07:01:48;;;;;;;5.00;4.10;;;;;;;3.41;96.54;99435.19;5028780;27;103358;-63
2022/01/20 07:04:26;;;;;;;7.70;4.70;;;;;;;3.45;96.39;99429.78;5029408;27;102682;-64
2022/01/20 07:06:54;;;;;;;5.27;4.00;;;;;;;3.27;97.47;99427.78;5055211;27;102604;-66
2022/01/20 07:09:57;;;;;;;5.37;4.10;;;;;;;3.28;97.07;99431.25;5041110;27;103294;-66
2022/01/20 07:12:41;;;;;;;4.27;3.80;;;;;;;3.25;96.87;99432.22;5035826;27;105078;-66
2022/01/20 07:15:13;;;;;;;6.63;3.87;;;;;;;3.23;96.97;99438.38;5041653;27;102814;-64
2022/01/20 07:17:42;;;;;;;5.87;3.03;;;;;;;3.31;96.89;99441.63;5055659;27;104209;-64
2022/01/20 07:20:12;;;;;;;5.90;3.80;;;;;;;3.25;97.41;99441.81;5031429;27;104486;-64
2022/01/20 07:23:03;;;;;;;5.33;3.50;;;;;;;3.29;97.19;99448.63;5050408;27;103359;-63
2022/01/20 07:25:37;;;;;;;5.87;3.80;;;;;;;3.22;96.78;99447.13;5033660;27;102888;-63
2022/01/20 07:28:15;;;;;;;4.57;3.13;;;;;;;3.29;96.39;99465.16;5041195;27;102789;-63
2022/01/20 07:30:43;;;;;;;5.00;3.50;;;;;;;3.21;96.13;99487.19;5030509;27;105041;-64
2022/01/20 07:33:12;;;;;;;4.03;3.33;;;;;;;3.29;96.64;99483.44;5037321;27;103502;-66
2022/01/20 07:35:44;;;;;;;5.67;3.97;;;;;;;3.25;95.75;99488.81;5027796;27;102696;-66
2022/01/20 07:38:15;;;;;;;4.57;3.60;;;;;;;3.29;95.63;99490.41;5033346;27;103844;-64
2022/01/20 07:40:43;;;;;;;6.33;3.43;;;;;;;3.33;95.66;99499.88;5035327;27;103356;-64
2022/01/20 07:43:11;;;;;;;5.37;3.23;;;;;;;3.29;94.66;99500.84;5036565;27;103207;-64
2022/01/20 07:45:48;;;;;;;5.57;3.10;;;;;;;3.28;94.69;99497.41;5025592;27;102920;-66
2022/01/20 07:48:19;;;;;;;6.20;3.30;;;;;;;3.38;93.77;99505.81;5044622;27;103700;-66
2022/01/20 07:50:51;;;;;;;7.67;4.00;;;;;;;3.42;94.17;99505.66;5020625;27;106767;-64
2022/01/20 07:53:25;;;;;;;8.40;4.10;;;;;;;3.41;95.32;99503.09;5041219;27;105244;-66
2022/01/20 07:55:53;;;;;;;8.67;3.70;;;;;;;3.40;93.83;99517.06;5033779;27;102749;-65
2022/01/20 07:58:22;;;;;;;5.73;3.40;;;;;;;3.72;94.12;99516.91;5036888;27;103700;-63
2022/01/20 08:00:52;;;;;;;6.07;3.27;;;;;;;3.93;92.24;99508.38;5038026;27;103546;-64
2022/01/20 08:03:27;;;;;;;8.47;3.63;;;;;;;4.01;90.05;99511.59;5034259;27;103416;-64
2022/01/20 08:06:04;;;;;;;4.83;3.20;;;;;;;3.81;90.96;99515.78;5033454;27;102811;-63
2022/01/20 08:08:36;;;;;;;6.73;3.13;;;;;;;3.88;91.22;99515.50;5034973;27;102789;-63
2022/01/20 08:11:32;;;;;;;5.17;2.87;;;;;;;3.84;90.72;99513.94;5027434;27;104146;-63
2022/01/20 08:14:19;;;;;;;8.33;3.40;;;;;;;3.97;91.47;99522.22;5030992;27;103037;-63
2022/01/20 08:16:49;;;;;;;9.70;3.27;;;;;;;4.03;90.72;99517.63;5033581;27;102657;-64
2022/01/20 08:19:20;;;;;;;5.03;3.30;;;;;;;3.90;91.28;99526.78;5036517;27;103640;-63
2022/01/20 08:21:48;;;;;;;8.93;3.47;;;;;;;3.84;91.72;99521.78;5032835;27;103135;-64
2022/01/20 08:24:17;;;;;;;8.30;4.07;;;;;;;3.80;91.73;99520.16;5038894;27;103160;-64
2022/01/20 08:26:45;;;;;;;9.83;3.87;;;;;;;3.61;92.12;99519.03;5030224;27;102691;-64
2022/01/20 08:29:15;;;;;;;4.43;3.03;;;;;;;3.83;92.30;99520.03;5027084;27;102707;-64
2022/01/20 08:31:44;;;;;;;10.37;4.00;;;;;;;3.88;91.13;99509.44;5026844;27;105373;-64
2022/01/20 08:34:52;;;;;;;6.20;3.00;;;;;;;3.67;91.41;99513.59;5031227;27;104108;-63
2022/01/20 08:37:45;;;;;;;8.00;3.67;;;;;;;3.69;91.76;99521.38;5043484;27;102758;-63
2022/01/20 08:40:15;;;;;;;8.07;3.57;;;;;;;3.81;91.32;99529.72;5035327;27;104121;-66
2022/01/20 08:42:46;;;;;;;8.53;3.53;;;;;;;3.90;91.05;99533.78;5029288;27;103262;-64
2022/01/20 08:45:16;;;;;;;9.67;3.47;;;;;;;3.95;91.06;99530.13;5033432;27;103166;-64
2022/01/20 08:47:45;;;;;;;9.70;3.53;;;;;;;3.98;90.41;99539.63;5040047;27;102565;-64
2022/01/20 08:50:16;;;;;;;9.37;3.30;;;;;;;3.92;90.16;99540.66;5023559;27;102703;-64
2022/01/20 08:52:46;;;;;;;10.80;3.60;;;;;;;4.02;89.61;99547.31;5024825;27;103400;-64
2022/01/20 08:55:18;;;;;;;9.20;3.80;;;;;;;4.03;89.78;99556.88;5027973;27;105325;-64
2022/01/20 08:57:53;;;;;;;5.60;3.33;;;;;;;3.94;91.64;99565.00;5026847;27;102716;-64
2022/01/20 09:00:22;;;;;;;8.03;3.30;;;;;;;4.01;89.68;99560.44;5035789;27;104074;-63
2022/01/20 09:03:04;;;;;;;6.70;4.00;;;;;;;3.98;89.19;99571.00;5035976;27;105890;-63
2022/01/20 09:05:34;;;;;;;7.60;3.40;;;;;;;4.21;89.09;99575.47;5026154;27;106042;-63
2022/01/20 09:08:13;;;;;;;6.80;3.43;;;;;;;4.13;89.17;99580.13;5030936;27;102742;-63
2022/01/20 09:11:01;;;;;;;6.67;3.07;;;;;;;4.30;89.12;99588.25;5029129;27;102717;-63
2022/01/20 09:16:21;;;;;;;10.30;3.33;;;;;;;4.43;87.78;99573.84;5025150;27;106060;-64
2022/01/20 09:19:09;;;;;;;5.50;3.00;;;;;;;4.39;88.56;99575.72;5043415;27;103015;-64
2022/01/20 09:21:40;;;;;;;7.33;3.63;;;;;;;4.50;87.95;99568.34;5027405;27;102709;-64
2022/01/20 09:24:08;;;;;;;9.67;3.60;;;;;;;4.44;86.93;99565.09;5024807;27;105819;-64
2022/01/20 09:26:37;;;;;;;9.97;3.90;;;;;;;4.55;87.14;99558.59;5039068;27;104213;-64
2022/01/20 09:29:06;;;;;;;7.33;3.40;;;;;;;4.55;86.94;99558.59;5029103;27;102709;-64
2022/01/20 09:31:38;;;;;;;7.07;3.17;;;;;;;4.68;86.55;99570.34;5034444;27;103678;-64
2022/01/20 09:34:09;;;;;;;8.37;3.47;;;;;;;4.67;86.84;99573.00;5030603;27;103366;-63
2022/01/20 09:36:42;;;;;;;8.73;3.73;;;;;;;4.57;87.28;99577.72;5022631;27;106766;-63
2022/01/20 09:39:10;;;;;;;8.97;4.30;;;;;;;4.58;87.24;99568.09;5033368;27;102753;-63
2022/01/20 09:42:01;;;;;;;12.60;3.57;;;;;;;4.45;87.30;99570.28;5049083;27;102786;-63
2022/01/20 09:44:32;;;;;;;9.50;3.70;;;;;;;4.60;87.47;99567.13;5036077;27;103198;-63
2022/01/20 09:47:02;;;;;;;8.33;3.47;;;;;;;4.81;86.87;99572.53;5030266;27;103228;-63
2022/01/20 09:49:58;;;;;;;9.33;3.40;;;;;;;4.75;86.73;99555.25;5051286;27;102648;-63
2022/01/20 09:52:36;;;;;;;7.77;3.33;;;;;;;4.63;86.71;99559.16;5034491;27;103935;-63
2022/01/20 09:55:41;;;;;;;10.90;3.37;;;;;;;4.77;86.27;99563.94;5037320;27;105574;-63
2022/01/20 09:58:11;;;;;;;6.77;3.70;;;;;;;4.90;85.98;99561.72;5040227;27;104453;-63
2022/01/20 10:00:41;;;;;;;11.20;4.13;;;;;;;4.78;85.85;99576.09;5038880;27;102776;-64
2022/01/20 10:03:12;;;;;;;7.80;3.30;;;;;;;4.68;86.28;99574.72;5055277;27;102704;-65
2022/01/20 10:05:43;;;;;;;6.90;3.30;;;;;;;4.73;86.67;99593.75;5038660;27;105143;-64
2022/01/20 10:08:18;;;;;;;10.57;3.33;;;;;;;4.73;85.89;99591.13;5046880;27;105213;-63
2022/01/20 10:11:00;;;;;;;7.97;3.63;;;;;;;4.84;85.55;99604.69;5033679;27;102636;-64
2022/01/20 10:13:51;;;;;;;13.97;3.80;;;;;;;4.88;85.48;99595.84;5051116;27;103327;-64
2022/01/20 10:16:39;;;;;;;9.13;3.50;;;;;;;4.82;85.59;99588.19;5055169;27;103758;-63
2022/01/20 10:19:23;;;;;;;7.70;3.27;;;;;;;4.90;84.54;99586.16;5044393;27;105550;-63
2022/01/20 10:21:51;;;;;;;6.37;3.33;;;;;;;4.91;84.54;99587.03;5037077;27;102687;-63
2022/01/20 10:24:28;;;;;;;9.40;3.47;;;;;;;4.88;86.29;99595.84;5050364;27;103859;-64
2022/01/20 10:27:09;;;;;;;8.33;3.70;;;;;;;4.74;85.12;99600.69;5046125;27;103675;-65
2022/01/20 10:29:39;;;;;;;9.07;3.80;;;;;;;4.73;85.18;99601.59;5024116;27;103361;-64
2022/01/20 10:32:21;;;;;;;10.23;3.40;;;;;;;4.84;85.21;99607.31;5031030;27;102788;-64
2022/01/20 10:35:02;;;;;;;8.70;3.90;;;;;;;4.88;84.12;99593.22;5037249;27;104218;-63
2022/01/20 10:37:34;;;;;;;9.60;3.80;;;;;;;5.04;84.33;99591.75;5049458;27;103952;-63
2022/01/20 10:40:14;;;;;;;6.13;3.43;;;;;;;5.21;83.83;99576.28;5020780;27;103377;-63
2022/01/20 10:42:48;;;;;;;9.23;4.07;;;;;;;5.20;83.74;99579.81;5031435;27;102737;-66
2022/01/20 10:45:22;;;;;;;5.83;3.33;;;;;;;5.25;83.87;99575.25;5035167;27;103661;-64
2022/01/20 10:47:53;;;;;;;8.80;4.17;;;;;;;5.22;82.92;99574.53;5048945;27;104313;-64
2022/01/20 10:50:27;;;;;;;7.27;3.90;;;;;;;5.37;83.31;99570.44;5038759;27;103923;-66
2022/01/20 10:53:17;;;;;;;10.23;4.37;;;;;;;5.48;81.49;99571.75;5033590;27;102753;-64
2022/01/20 10:55:47;;;;;;;9.20;3.63;;;;;;;5.16;82.61;99573.00;5040208;27;102947;-64
2022/01/20 10:58:22;;;;;;;5.33;3.57;;;;;;;5.34;83.08;99571.44;5030288;27;103894;-64
2022/01/20 11:00:54;;;;;;;12.17;3.80;;;;;;;5.36;82.41;99574.00;5038510;27;105696;-64
2022/01/20 11:03:26;;;;;;;5.10;3.30;;;;;;;5.44;82.51;99566.72;5027128;27;102628;-64
2022/01/20 11:05:58;;;;;;;8.27;3.60;;;;;;;5.32;82.37;99560.16;5033993;27;102672;-64
2022/01/20 11:08:40;;;;;;;8.43;3.87;;;;;;;5.37;83.02;99566.06;5041330;27;105546;-65
2022/01/20 11:11:14;;;;;;;6.33;3.67;;;;;;;5.05;83.06;99569.88;5030810;27;104137;-65
2022/01/20 11:13:43;;;;;;;6.93;3.60;;;;;;;5.14;83.65;99559.06;5043615;27;102896;-64
2022/01/20 11:16:11;;;;;;;10.00;3.30;;;;;;;5.24;83.02;99549.13;5027049;27;104229;-63
2022/01/20 11:18:42;;;;;;;9.00;3.10;;;;;;;5.38;82.74;99551.22;5034933;27;105583;-64
2022/01/20 11:21:10;;;;;;;7.27;3.70;;;;;;;5.46;82.61;99538.66;5032149;27;103254;-64
2022/01/20 11:23:44;;;;;;;7.43;3.70;;;;;;;5.38;82.49;99531.09;5027573;27;102676;-64
2022/01/20 11:26:37;;;;;;;10.40;4.67;;;;;;;5.49;82.37;99534.16;5019788;27;104287;-64
2022/01/20 11:29:25;;;;;;;8.57;4.13;;;;;;;5.45;82.48;99529.94;5045303;27;103896;-64
2022/01/20 11:32:17;;;;;;;9.73;3.60;;;;;;;5.64;81.68;99533.56;5047728;27;103212;-65
2022/01/20 11:34:56;;;;;;;8.23;3.53;;;;;;;5.63;81.65;99528.38;5024526;27;102731;-65
2022/01/20 11:37:24;;;;;;;9.93;3.33;;;;;;;6.11;79.89;99523.81;5051475;27;103836;-65
2022/01/20 11:39:54;;;;;;;5.77;3.67;;;;;;;7.00;76.04;99516.44;5025200;27;104201;-65
2022/01/20 11:42:26;;;;;;;7.90;3.30;;;;;;;7.35;75.49;99517.47;5045837;27;103481;-64
2022/01/20 11:44:54;;;;;;;7.53;3.27;;;;;;;7.11;75.58;99519.44;5025648;27;102649;-63
2022/01/20 11:47:32;;;;;;;4.87;2.93;;;;;;;6.89;76.19;99516.06;5053340;27;102627;-65
2022/01/20 11:50:00;;;;;;;6.10;3.50;;;;;;;6.69;77.05;99500.34;5053928;27;104326;-65
2022/01/20 11:52:29;;;;;;;6.37;2.90;;;;;;;6.52;75.35;99498.44;5052188;27;103187;-65
2022/01/20 11:55:19;;;;;;;7.43;3.00;;;;;;;6.49;76.31;99500.34;5038915;27;102645;-63
2022/01/20 11:57:50;;;;;;;5.83;3.03;;;;;;;6.25;77.19;99503.13;5046632;27;103680;-63
2022/01/20 12:00:24;;;;;;;8.70;3.53;;;;;;;6.22;76.88;99503.25;5046694;27;103219;-64
2022/01/20 12:02:53;;;;;;;5.40;3.10;;;;;;;6.22;76.34;99495.38;5037725;27;105062;-64
2022/01/20 12:05:35;;;;;;;6.87;2.40;;;;;;;6.05;77.82;99497.84;5034369;27;102665;-64
2022/01/20 12:08:36;;;;;;;7.83;2.50;;;;;;;5.66;78.24;99508.16;5019945;27;103880;-64
2022/01/20 12:11:07;;;;;;;6.63;3.20;;;;;;;5.26;80.52;99519.31;5046657;27;103234;-64
2022/01/20 12:13:47;;;;;;;2.43;1.50;;;;;;;3.51;87.48;99552.41;5046883;27;103281;-64
2022/01/20 12:16:19;;;;;;;1.37;0.70;;;;;;;2.87;91.75;99563.88;5045963;27;102826;-64
2022/01/20 12:18:50;;;;;;;3.83;1.00;;;;;;;2.08;94.72;99582.47;5055681;27;103128;-64
2022/01/20 12:21:18;;;;;;;2.87;1.30;;;;;;;2.04;97.42;99578.25;5053827;27;103638;-64
2022/01/20 12:23:48;;;;;;;2.37;1.30;;;;;;;2.54;98.12;99572.63;5050515;27;103288;-64
2022/01/20 12:26:16;;;;;;;4.40;1.57;;;;;;;2.28;96.36;99575.03;5059696;27;102537;-64
2022/01/20 12:28:45;;;;;;;1.97;1.40;;;;;;;2.72;97.06;99571.28;5038760;27;104042;-64
2022/01/20 12:31:14;;;;;;;2.93;1.80;;;;;;;2.41;95.09;99571.22;5048085;27;103931;-64
2022/01/20 12:33:46;;;;;;;2.83;1.60;;;;;;;2.25;95.27;99575.97;5044862;27;103467;-63
2022/01/20 12:36:16;;;;;;;4.50;1.73;;;;;;;2.51;95.92;99564.88;5051841;27;102657;-63
2022/01/20 12:38:47;;;;;;;9.60;1.87;;;;;;;2.55;95.19;99566.50;5020349;27;104124;-64
2022/01/20 12:41:17;;;;;;;4.90;2.03;;;;;;;2.76;94.23;99557.22;5037701;27;104449;-63
2022/01/20 12:43:50;;;;;;;5.83;1.90;;;;;;;2.93;93.51;99561.09;5049342;27;103196;-64
2022/01/20 12:46:20;;;;;;;6.47;1.77;;;;;;;3.05;94.36;99559.03;5030986;27;102769;-64
2022/01/20 12:48:54;;;;;;;3.67;1.77;;;;;;;3.14;93.88;99575.31;5036261;27;103838;-65
2022/01/20 12:51:32;;;;;;;6.97;1.93;;;;;;;2.83;91.97;99582.28;5054841;27;103226;-64
2022/01/20 12:54:05;;;;;;;5.63;1.90;;;;;;;3.02;92.06;99586.09;5032293;27;103177;-64